Time;durP1;ratioP1;P1;durP2;ratioP2;P2;SDS_P1;SDS_P2;PMS_P1;PMS_P2;Temp;Humidity;BMP_temperature;BMP_pressure;BME280_temperature;BME280_humidity;BME280_pressure;Samples;Min_cycle;Max_cycle;Signal;HPM_P1;HPM_P2
2021/07/08 00:01:18;;;;;;;10.53;4.83;;;;;;;19.47;70.46;99272.84;2281802;78;20953;-79
2021/07/08 00:04:19;;;;;;;10.95;4.72;;;;;;;19.39;70.73;99269.87;2281832;77;20942;-81
2021/07/08 00:07:20;;;;;;;13.70;5.20;;;;;;;19.31;71.16;99260.32;2281758;77;20907;-80
2021/07/08 00:10:21;;;;;;;8.53;5.37;;;;;;;19.27;71.08;99267.89;2281910;77;20934;-80
2021/07/08 00:13:22;;;;;;;16.12;5.78;;;;;;;19.24;71.88;99258.67;2281915;78;20931;-80
2021/07/08 00:16:23;;;;;;;8.65;5.12;;;;;;;19.22;72.04;99262.67;2281977;77;21334;-80
2021/07/08 00:19:24;;;;;;;7.35;4.50;;;;;;;19.20;71.47;99254.33;2281668;78;20950;-80
2021/07/08 00:22:25;;;;;;;8.75;5.28;;;;;;;19.20;71.41;99258.30;2281971;78;20863;-80
2021/07/08 00:25:26;;;;;;;6.65;4.83;;;;;;;19.13;71.91;99259.30;2285909;77;20952;-80
2021/07/08 00:28:27;;;;;;;9.40;4.80;;;;;;;19.05;72.17;99258.94;2291773;78;20892;-80
2021/07/08 00:31:27;;;;;;;13.83;5.00;;;;;;;19.00;72.10;99263.43;2291732;78;20912;-80
2021/07/08 00:34:28;;;;;;;6.67;5.12;;;;;;;18.94;72.24;99261.33;2291826;78;20916;-79
2021/07/08 00:37:29;;;;;;;12.07;5.17;;;;;;;18.89;72.65;99268.01;2291768;78;20944;-80
2021/07/08 00:40:30;;;;;;;6.75;4.78;;;;;;;18.86;72.71;99264.53;2291868;78;20940;-80
2021/07/08 00:43:31;;;;;;;9.88;4.92;;;;;;;18.83;73.13;99264.13;2291962;78;20987;-79
2021/07/08 00:46:32;;;;;;;11.22;4.67;;;;;;;18.82;72.83;99262.83;2291808;78;20939;-79
2021/07/08 00:49:33;;;;;;;12.80;4.95;;;;;;;18.79;72.73;99254.50;2291521;78;21083;-79
2021/07/08 00:52:35;;;;;;;9.58;4.50;;;;;;;19.45;73.87;99253.02;2291406;78;20936;-79
2021/07/08 00:55:36;;;;;;;5.35;4.33;;;;;;;20.01;71.51;99249.38;2291929;78;20900;-80
2021/07/08 00:58:37;;;;;;;7.10;4.47;;;;;;;20.09;70.43;99249.22;2292066;78;20945;-80
2021/07/08 01:01:37;;;;;;;130.05;13.45;;;;;;;20.64;70.28;99248.08;2291821;78;20915;-79
2021/07/08 01:04:38;;;;;;;10.25;4.85;;;;;;;21.47;68.33;99240.38;2291973;78;20909;-80
2021/07/08 01:07:39;;;;;;;11.57;4.28;;;;;;;21.47;68.33;99240.38;2291971;78;20959;-81
2021/07/08 01:10:40;;;;;;;4.92;4.42;;;;;;;22.06;65.70;99246.80;2291917;78;20904;-80
2021/07/08 01:13:41;;;;;;;10.95;4.92;;;;;;;21.33;64.40;99245.17;2291814;78;21360;-81
2021/07/08 01:16:42;;;;;;;10.10;5.15;;;;;;;20.40;65.92;99256.12;2291137;78;20968;-78
2021/07/08 01:19:43;;;;;;;16.50;5.75;;;;;;;19.82;67.46;99266.95;2291788;78;20984;-81
2021/07/08 01:22:44;;;;;;;11.80;5.28;;;;;;;19.37;68.86;99268.16;2291770;78;20964;-81
2021/07/08 01:25:45;;;;;;;11.25;6.20;;;;;;;19.08;70.16;99276.57;2286983;78;20942;-80
2021/07/08 01:28:46;;;;;;;10.98;6.15;;;;;;;18.85;71.39;99280.85;2281939;77;20906;-82
2021/07/08 01:31:47;;;;;;;9.13;6.28;;;;;;;18.63;71.93;99276.31;2281775;78;21335;-80
2021/07/08 01:34:48;;;;;;;12.10;6.25;;;;;;;18.55;72.03;99278.61;2282003;77;20970;-80
2021/07/08 01:37:48;;;;;;;13.03;6.08;;;;;;;18.48;72.93;99279.58;2282020;78;20918;-80
2021/07/08 01:40:50;;;;;;;13.00;6.55;;;;;;;18.42;73.23;99279.22;2281991;77;20907;-80
2021/07/08 01:43:50;;;;;;;10.72;8.25;;;;;;;18.37;73.69;99281.92;2281819;78;20953;-81
2021/07/08 01:46:51;;;;;;;9.58;7.42;;;;;;;18.19;73.99;99284.75;2281938;77;21165;-80
2021/07/08 01:49:52;;;;;;;7.55;6.80;;;;;;;18.14;74.13;99284.80;2281785;77;21069;-83
2021/07/08 01:52:53;;;;;;;17.17;6.72;;;;;;;18.10;75.10;99284.86;2281743;77;20910;-81
2021/07/08 01:55:57;;;;;;;7.40;6.53;;;;;;;18.04;74.98;99289.77;2281248;78;20925;-80
2021/07/08 01:58:57;;;;;;;14.55;7.00;;;;;;;18.04;74.85;99288.89;2281644;77;20988;-82
2021/07/08 02:01:58;;;;;;;11.35;7.05;;;;;;;17.96;75.04;99291.62;2281592;78;21341;-81
2021/07/08 02:04:59;;;;;;;15.10;7.42;;;;;;;18.02;75.12;99297.28;2281827;77;21263;-81
2021/07/08 02:07:59;;;;;;;13.03;7.17;;;;;;;18.03;75.19;99297.27;2281964;77;21271;-80
2021/07/08 02:11:00;;;;;;;15.15;7.08;;;;;;;18.08;75.12;99294.13;2281652;77;20910;-80
2021/07/08 02:14:01;;;;;;;13.20;7.72;;;;;;;18.23;75.31;99293.11;2281813;78;21273;-79
2021/07/08 02:17:02;;;;;;;14.58;7.12;;;;;;;18.38;74.50;99294.23;2282146;77;20915;-81
2021/07/08 02:20:03;;;;;;;12.13;8.00;;;;;;;18.42;74.49;99304.33;2281948;78;20978;-79
2021/07/08 02:23:05;;;;;;;13.03;9.00;;;;;;;18.56;73.89;99309.44;2281457;77;21314;-82
2021/07/08 02:26:06;;;;;;;13.53;9.88;;;;;;;18.53;73.80;99313.44;2286345;77;20972;-79
2021/07/08 02:29:09;;;;;;;15.63;8.98;;;;;;;18.31;74.41;99306.22;2291678;78;20912;-81
2021/07/08 02:32:09;;;;;;;14.73;10.10;;;;;;;18.19;74.02;99318.23;2291597;78;21364;-80
2021/07/08 02:35:10;;;;;;;14.63;10.10;;;;;;;18.10;74.71;99315.23;2291223;78;20913;-84
2021/07/08 02:38:11;;;;;;;14.45;10.25;;;;;;;18.08;75.34;99312.61;2291828;78;21324;-80
2021/07/08 02:41:12;;;;;;;13.43;9.15;;;;;;;18.36;74.87;99312.33;2291627;78;20941;-81
2021/07/08 02:44:13;;;;;;;10.98;7.15;;;;;;;18.24;74.70;99312.03;2291678;78;21300;-80
2021/07/08 02:47:14;;;;;;;8.30;6.58;;;;;;;18.22;75.00;99307.66;2291848;78;21312;-81
2021/07/08 02:50:15;;;;;;;14.15;6.62;;;;;;;18.36;74.92;99318.94;2291839;78;20968;-80
2021/07/08 02:53:16;;;;;;;10.50;7.03;;;;;;;18.50;74.70;99326.70;2291648;78;20912;-79
2021/07/08 02:56:17;;;;;;;11.75;6.85;;;;;;;18.44;74.27;99323.69;2291928;78;20972;-80
2021/07/08 02:59:18;;;;;;;14.33;7.63;;;;;;;18.38;74.42;99327.27;2291910;78;20896;-80
2021/07/08 03:02:19;;;;;;;11.00;5.65;;;;;;;18.35;74.44;99333.92;2291876;78;20896;-81
2021/07/08 03:05:20;;;;;;;8.88;5.50;;;;;;;18.28;74.47;99325.63;2292221;78;21102;-79
2021/07/08 03:08:21;;;;;;;13.03;5.83;;;;;;;18.31;74.78;99330.01;2291910;78;20905;-80
2021/07/08 03:11:23;;;;;;;6.67;5.83;;;;;;;18.30;74.71;99330.91;2291837;78;20936;-79
2021/07/08 03:14:24;;;;;;;12.30;6.60;;;;;;;18.35;75.20;99325.98;2291846;78;20952;-79
2021/07/08 03:17:25;;;;;;;9.98;6.60;;;;;;;18.35;74.87;99321.16;2291882;78;20904;-81
2021/07/08 03:20:26;;;;;;;10.88;6.25;;;;;;;18.27;75.25;99316.41;2291985;78;20976;-80
2021/07/08 03:23:27;;;;;;;9.18;5.55;;;;;;;18.27;75.55;99322.56;2292084;78;20952;-80
2021/07/08 03:26:28;;;;;;;7.50;5.50;;;;;;;18.23;75.56;99316.88;2285849;78;20969;-80
2021/07/08 03:29:29;;;;;;;13.28;6.05;;;;;;;18.25;75.52;99321.70;2281947;77;20894;-79
2021/07/08 03:32:30;;;;;;;9.68;5.25;;;;;;;18.26;75.95;99310.69;2281765;78;20945;-79
2021/07/08 03:35:31;;;;;;;8.90;6.17;;;;;;;18.42;75.55;99317.09;2281777;77;21306;-79
2021/07/08 03:38:31;;;;;;;17.20;6.08;;;;;;;18.40;75.52;99321.97;2281913;78;20898;-79
2021/07/08 03:41:32;;;;;;;15.33;6.93;;;;;;;18.40;75.52;99321.97;2281815;78;20895;-80
2021/07/08 03:44:33;;;;;;;11.88;8.23;;;;;;;18.47;75.87;99326.29;2281944;78;21166;-79
2021/07/08 03:47:34;;;;;;;13.08;9.28;;;;;;;18.44;75.76;99327.20;2281847;78;20942;-80
2021/07/08 03:50:35;;;;;;;14.15;9.45;;;;;;;18.49;75.91;99331.11;2281440;77;20981;-79
2021/07/08 03:53:36;;;;;;;14.20;8.55;;;;;;;18.53;76.04;99332.82;2281673;77;20970;-79
2021/07/08 03:56:37;;;;;;;19.27;9.03;;;;;;;18.57;76.16;99328.37;2281710;77;21282;-80
2021/07/08 03:59:39;;;;;;;16.77;9.10;;;;;;;18.65;76.00;99333.14;2281472;78;21009;-78
2021/07/08 04:02:39;;;;;;;17.12;9.63;;;;;;;18.59;76.32;99334.06;2281483;78;20986;-80
2021/07/08 04:05:40;;;;;;;16.17;10.25;;;;;;;18.57;76.61;99332.34;2281422;78;20945;-79
2021/07/08 04:08:41;;;;;;;16.62;11.88;;;;;;;18.54;76.43;99331.05;2281547;78;20918;-79
2021/07/08 04:11:46;;;;;;;21.17;11.45;;;;;;;18.59;76.54;99334.52;2281491;78;21021;-80
2021/07/08 04:14:47;;;;;;;19.40;12.53;;;;;;;18.63;76.43;99334.48;2281476;78;20958;-79
2021/07/08 04:17:54;;;;;;;18.23;10.75;;;;;;;18.78;76.35;99337.37;2281678;78;20918;-80
2021/07/08 04:20:55;;;;;;;21.80;12.95;;;;;;;18.79;75.95;99336.48;2280854;78;20941;-80
2021/07/08 04:23:56;;;;;;;19.77;10.98;;;;;;;18.80;76.02;99343.52;2281565;78;20997;-80
2021/07/08 04:26:57;;;;;;;15.78;11.28;;;;;;;18.81;75.91;99346.59;2262926;78;21392;-78
2021/07/08 04:29:57;;;;;;;21.15;11.90;;;;;;;18.80;76.08;99353.22;2249288;79;21292;-80
2021/07/08 04:32:58;;;;;;;19.20;11.78;;;;;;;18.80;76.53;99366.45;2249383;79;20971;-80
2021/07/08 04:36:06;;;;;;;14.73;10.85;;;;;;;18.82;76.73;99377.44;2249500;79;21300;-79
2021/07/08 04:39:07;;;;;;;16.45;11.08;;;;;;;18.95;76.56;99378.15;2249422;79;20956;-81
2021/07/08 04:42:14;;;;;;;16.30;12.25;;;;;;;19.00;75.94;99385.13;2249186;79;21308;-79
2021/07/08 04:45:15;;;;;;;36.00;13.32;;;;;;;18.95;76.25;99390.05;2248791;79;20965;-80
2021/07/08 04:48:16;;;;;;;24.63;12.53;;;;;;;18.94;76.26;99392.27;2248546;79;20980;-83
2021/07/08 04:51:17;;;;;;;19.35;13.13;;;;;;;18.99;76.50;99395.28;2249084;79;20984;-80
2021/07/08 04:54:18;;;;;;;18.30;12.68;;;;;;;19.01;76.13;99394.81;2249605;79;20980;-79
2021/07/08 04:57:19;;;;;;;25.05;13.20;;;;;;;19.02;76.21;99395.69;2249503;79;20947;-78
2021/07/08 05:00:23;;;;;;;19.23;13.28;;;;;;;18.96;76.31;99389.16;2249592;79;20951;-79
2021/07/08 05:03:24;;;;;;;;;;;;;;;18.94;76.75;99395.79;2251941;79;21343;-81
2021/07/08 05:06:25;;;;;;;25.52;12.28;;;;;;;19.17;76.20;99395.95;2249508;78;20127;-79
2021/07/08 05:09:27;;;;;;;20.48;13.90;;;;;;;19.35;75.57;99386.42;2249625;79;20987;-78
2021/07/08 05:12:28;;;;;;;25.95;14.05;;;;;;;19.47;75.48;99400.80;2249560;79;20943;-80
2021/07/08 05:15:29;;;;;;;27.67;15.13;;;;;;;19.28;75.51;99396.67;2249422;79;20909;-80
2021/07/08 05:18:30;;;;;;;38.28;14.53;;;;;;;19.31;75.63;99397.51;2249443;79;21004;-80
2021/07/08 05:21:31;;;;;;;28.23;12.35;;;;;;;19.39;75.57;99403.56;2249440;79;20924;-79
2021/07/08 05:24:33;;;;;;;31.85;13.70;;;;;;;19.47;75.15;99395.95;2248925;79;20943;-80
2021/07/08 05:27:34;;;;;;;30.68;16.57;;;;;;;19.36;75.15;99394.80;2270762;77;21014;-81
2021/07/08 05:30:35;;;;;;;36.55;17.87;;;;;;;19.25;75.59;99399.37;2280845;78;20966;-79
2021/07/08 05:33:36;;;;;;;26.35;15.88;;;;;;;;;;2281250;78;20903;-80
2021/07/08 05:36:37;;;;;;;33.28;18.48;;;;;;;;;;2281579;78;20926;-80
2021/07/08 05:39:37;;;;;;;40.80;19.65;;;;;;;19.37;75.65;99393.45;2281662;78;20994;-79
2021/07/08 05:42:38;;;;;;;39.15;20.57;;;;;;;19.20;75.83;99399.44;2280933;78;20964;-79
2021/07/08 05:45:40;;;;;;;34.20;19.92;;;;;;;19.23;76.20;99401.16;2280673;78;21589;-80
2021/07/08 05:48:41;;;;;;;38.08;18.90;;;;;;;19.17;75.91;99398.60;2280234;78;20934;-79
2021/07/08 05:51:42;;;;;;;43.60;21.57;;;;;;;19.57;75.81;99398.92;2281065;78;21041;-79
2021/07/08 05:54:43;;;;;;;43.55;20.62;;;;;;;19.92;75.15;99402.31;2280592;78;20986;-79
2021/07/08 05:57:47;;;;;;;38.98;19.80;;;;;;;19.68;74.68;99407.12;2281131;78;20949;-80
2021/07/08 06:00:48;;;;;;;39.42;20.57;;;;;;;19.78;75.25;99416.23;2281261;78;20982;-79
2021/07/08 06:03:49;;;;;;;42.30;21.40;;;;;;;19.86;74.69;99419.19;2280884;78;21009;-81
2021/07/08 06:06:50;;;;;;;62.30;24.18;;;;;;;19.60;74.96;99421.37;2281176;78;20983;-81
2021/07/08 06:09:51;;;;;;;53.87;26.35;;;;;;;19.47;75.25;99414.48;2280645;78;20949;-79
2021/07/08 06:12:52;;;;;;;61.28;26.10;;;;;;;19.30;76.09;99423.55;2281282;78;20964;-80
2021/07/08 06:15:53;;;;;;;48.83;26.48;;;;;;;19.25;76.56;99420.55;2281341;78;20922;-80
2021/07/08 06:18:54;;;;;;;66.77;27.32;;;;;;;19.29;76.80;99419.60;2280695;78;21029;-80
2021/07/08 06:21:58;;;;;;;56.60;27.95;;;;;;;19.32;76.69;99416.91;2281693;78;20967;-78
2021/07/08 06:24:59;;;;;;;58.78;29.15;;;;;;;19.24;76.87;99420.98;2281802;78;20949;-79
2021/07/08 06:28:00;;;;;;;61.98;28.87;;;;;;;19.22;77.29;99424.11;2257049;78;20991;-79
2021/07/08 06:31:01;;;;;;;55.15;28.23;;;;;;;19.30;76.91;99427.97;2249428;79;20970;-80
2021/07/08 06:34:01;;;;;;;64.05;29.50;;;;;;;19.56;76.46;99419.23;2248795;79;20916;-80
2021/07/08 06:37:09;;;;;;;59.88;29.05;;;;;;;19.55;76.22;99422.77;2248855;79;20995;-79
2021/07/08 06:40:10;;;;;;;61.80;29.00;;;;;;;19.45;76.62;99427.75;2248720;79;20950;-80
2021/07/08 06:43:14;;;;;;;62.90;28.98;;;;;;;19.66;76.75;99429.23;2249334;79;20928;-80
2021/07/08 06:46:19;;;;;;;63.78;29.40;;;;;;;19.68;76.20;99431.41;2249349;79;21347;-78
2021/07/08 06:49:20;;;;;;;64.90;31.23;;;;;;;19.65;76.74;99433.65;2248918;79;21431;-79
2021/07/08 06:52:21;;;;;;;45.05;26.55;;;;;;;19.64;76.17;99432.35;2249485;79;21359;-80
2021/07/08 06:55:22;;;;;;;46.63;27.02;;;;;;;19.49;76.99;99424.16;2249342;79;20975;-80
2021/07/08 06:58:23;;;;;;;51.10;28.90;;;;;;;19.50;76.96;99417.96;2249260;79;20912;-80
2021/07/08 07:01:25;;;;;;;52.95;30.72;;;;;;;19.42;77.23;99413.23;2248866;79;20964;-79
2021/07/08 07:04:26;;;;;;;61.10;31.27;;;;;;;19.50;77.30;99411.34;2249427;79;20899;-79
2021/07/08 07:07:27;;;;;;;55.00;34.70;;;;;;;19.50;77.34;99408.70;2248939;79;21000;-80
2021/07/08 07:10:28;;;;;;;62.73;37.53;;;;;;;19.62;77.57;99412.96;2248488;79;20912;-79
2021/07/08 07:13:29;;;;;;;75.28;41.68;;;;;;;19.58;77.36;99420.08;2248604;79;21340;-81
2021/07/08 07:16:30;;;;;;;66.47;40.03;;;;;;;19.60;77.32;99420.05;2248395;79;20960;-80
2021/07/08 07:19:31;;;;;;;70.87;39.18;;;;;;;19.64;77.62;99422.63;2248842;79;21436;-80
2021/07/08 07:22:32;;;;;;;74.32;41.35;;;;;;;19.60;77.49;99425.35;2249146;79;20952;-79
2021/07/08 07:25:39;;;;;;;64.55;38.25;;;;;;;19.63;76.99;99430.15;2249343;79;21292;-80
2021/07/08 07:28:36;;;;;;;61.77;36.48;;;;;;;19.83;76.79;99424.98;2275910;77;20949;-79
2021/07/08 07:31:37;;;;;;;67.00;37.95;;;;;;;19.82;76.73;99434.70;2281830;78;21041;-79
2021/07/08 07:34:37;;;;;;;59.08;34.60;;;;;;;19.87;76.47;99424.91;2280769;78;20965;-81
2021/07/08 07:37:39;;;;;;;57.35;34.55;;;;;;;19.90;76.21;99426.63;2280661;78;20962;-79
2021/07/08 07:40:39;;;;;;;59.13;37.20;;;;;;;20.02;76.06;99426.46;2281025;78;21318;-80
2021/07/08 07:43:41;;;;;;;59.10;36.83;;;;;;;20.01;76.05;99424.71;2280939;78;20986;-80
2021/07/08 07:46:41;;;;;;;55.65;36.48;;;;;;;19.99;76.23;99421.21;2280861;78;20899;-80
2021/07/08 07:49:42;;;;;;;52.43;32.23;;;;;;;20.11;75.93;99421.00;2281523;78;21424;-80
2021/07/08 07:52:46;;;;;;;45.90;29.92;;;;;;;20.34;75.76;99419.27;2281482;78;20978;-81
2021/07/08 07:55:49;;;;;;;54.40;34.80;;;;;;;20.58;74.92;99421.94;2281594;78;20985;-82
2021/07/08 07:58:50;;;;;;;55.58;33.50;;;;;;;20.68;73.99;99412.89;2281804;78;20974;-82
2021/07/08 08:01:52;;;;;;;44.38;31.15;;;;;;;20.92;74.04;99415.52;2280834;78;20988;-81
2021/07/08 08:11:26;;;;;;;39.70;26.60;;;;;;;22.42;70.82;99402.25;2281306;78;20930;-81
2021/07/08 08:14:29;;;;;;;41.28;27.70;;;;;;;22.99;68.68;99393.13;2260722;78;20879;-80
2021/07/08 08:17:30;;;;;;;36.20;25.90;;;;;;;22.81;67.14;99401.19;2281558;78;20902;-80
2021/07/08 08:20:31;;;;;;;36.70;26.02;;;;;;;22.41;67.61;99400.05;2281929;78;20950;-84
2021/07/08 08:23:32;;;;;;;30.97;23.07;;;;;;;22.50;68.24;99402.91;2282132;78;21299;-81
2021/07/08 08:26:33;;;;;;;30.92;23.38;;;;;;;23.15;66.75;99392.20;2277912;77;21289;-81
2021/07/08 08:29:33;;;;;;;29.87;23.00;;;;;;;23.83;65.48;99395.40;2249708;79;20942;-81
2021/07/08 08:32:34;;;;;;;34.73;25.00;;;;;;;24.52;62.33;99389.53;2249397;79;20940;-83
2021/07/08 08:35:35;;;;;;;32.83;23.70;;;;;;;24.56;60.94;99395.16;2249249;79;21244;-81
2021/07/08 08:38:36;;;;;;;33.13;23.70;;;;;;;24.25;61.50;99392.65;2249758;79;21012;-79
2021/07/08 08:41:39;;;;;;;34.45;21.25;;;;;;;23.77;62.29;99394.73;2249631;79;20892;-80
2021/07/08 08:44:40;;;;;;;33.08;21.75;;;;;;;24.13;63.09;99400.16;2249155;79;20966;-82
2021/07/08 08:47:45;;;;;;;32.20;20.75;;;;;;;25.02;61.52;99396.56;2249289;79;20904;-80
2021/07/08 08:50:47;;;;;;;30.08;20.43;;;;;;;25.53;59.83;99390.60;2249060;79;21403;-81
2021/07/08 08:53:48;;;;;;;25.40;21.05;;;;;;;25.60;59.29;99383.61;2249354;79;20976;-81
2021/07/08 08:56:49;;;;;;;29.07;20.48;;;;;;;26.10;58.55;99385.16;2248763;79;20983;-81
2021/07/08 08:59:50;;;;;;;32.35;25.20;;;;;;;26.23;56.64;99378.34;2249378;79;20939;-81
2021/07/08 09:02:51;;;;;;;27.48;20.20;;;;;;;26.28;57.09;99384.37;2249414;79;20909;-81
2021/07/08 09:05:52;;;;;;;24.72;20.20;;;;;;;26.12;55.93;99381.48;2249149;79;21372;-81
2021/07/08 09:08:53;;;;;;;49.45;21.52;;;;;;;25.73;57.07;99380.00;2249078;79;21291;-81
2021/07/08 09:11:54;;;;;;;26.17;20.00;;;;;;;25.43;58.30;99376.73;2249140;79;21324;-82
2021/07/08 09:14:55;;;;;;;24.90;20.08;;;;;;;25.83;57.92;99367.98;2248925;79;20909;-82
2021/07/08 09:17:56;;;;;;;22.20;19.48;;;;;;;26.29;57.92;99356.67;2249319;79;21287;-82
2021/07/08 09:20:57;;;;;;;25.25;17.95;;;;;;;26.34;56.86;99355.56;2249045;79;20974;-83
2021/07/08 09:23:58;;;;;;;53.02;20.10;;;;;;;26.43;57.32;99350.27;2247547;79;21662;-82
2021/07/08 09:26:59;;;;;;;32.15;18.62;;;;;;;26.53;56.74;99347.58;2248223;77;20976;-82
2021/07/08 09:30:00;;;;;;;27.15;20.32;;;;;;;26.86;55.97;99340.28;2248346;79;20912;-81
2021/07/08 09:33:01;;;;;;;20.55;18.42;;;;;;;27.22;54.35;99339.94;2247905;79;21442;-80
2021/07/08 09:36:02;;;;;;;22.42;18.98;;;;;;;27.57;54.00;99340.02;2248598;79;20872;-84
2021/07/08 09:39:03;;;;;;;22.25;19.90;;;;;;;27.76;53.45;99340.03;2248531;79;21355;-82
2021/07/08 09:42:04;;;;;;;20.40;18.50;;;;;;;27.76;53.69;99341.38;2249234;79;20872;-81
2021/07/08 09:45:05;;;;;;;22.75;17.67;;;;;;;27.27;53.81;99345.08;2249239;79;20953;-81
2021/07/08 09:48:06;;;;;;;31.10;24.60;;;;;;;27.23;54.25;99336.78;2248790;79;20904;-82
2021/07/08 09:51:08;;;;;;;25.65;19.07;;;;;;;27.45;54.16;99335.27;2248629;79;20972;-82
2021/07/08 09:54:14;;;;;;;22.58;18.02;;;;;;;27.44;53.91;99344.25;2248440;79;20964;-80
2021/07/08 09:57:11;;;;;;;19.80;17.55;;;;;;;27.99;53.27;99342.89;2248760;79;20957;-82
2021/07/08 10:00:15;;;;;;;24.20;16.95;;;;;;;27.87;52.83;99338.55;2249136;79;20911;-81
2021/07/08 10:03:16;;;;;;;22.07;17.50;;;;;;;28.44;52.10;99337.83;2248783;79;20959;-81
2021/07/08 10:06:17;;;;;;;18.82;16.93;;;;;;;28.83;51.89;99345.62;2249057;79;21355;-82
2021/07/08 10:09:18;;;;;;;17.48;15.88;;;;;;;28.97;51.47;99335.45;2249169;79;20991;-82
2021/07/08 10:12:19;;;;;;;38.50;18.75;;;;;;;29.42;50.08;99334.67;2249470;79;20979;-81
2021/07/08 10:15:20;;;;;;;23.65;18.82;;;;;;;29.45;49.57;99319.73;2249589;79;21300;-84
2021/07/08 10:18:24;;;;;;;25.43;19.70;;;;;;;29.52;50.01;99329.70;2250049;79;20921;-82
2021/07/08 10:21:29;;;;;;;20.27;18.27;;;;;;;29.14;49.48;99331.34;2249277;79;21046;-82
2021/07/08 10:24:30;;;;;;;21.27;18.32;;;;;;;28.40;50.63;99333.58;2249406;79;20989;-83
2021/07/08 10:27:31;;;;;;;21.60;17.55;;;;;;;28.70;51.70;99331.56;2260108;77;21050;-81
2021/07/08 10:30:32;;;;;;;18.95;17.00;;;;;;;28.98;51.07;99321.06;2291357;78;20905;-82
2021/07/08 10:33:33;;;;;;;18.75;16.97;;;;;;;29.58;50.85;99314.55;2291303;78;21375;-81
2021/07/08 10:36:34;;;;;;;19.48;17.15;;;;;;;30.21;49.69;99307.64;2291320;78;20905;-81
2021/07/08 10:39:35;;;;;;;19.85;17.95;;;;;;;30.47;48.19;99306.55;2291087;78;21380;-82
2021/07/08 10:42:36;;;;;;;20.12;17.70;;;;;;;30.72;48.31;99301.38;2290767;78;21101;-81
2021/07/08 10:45:41;;;;;;;22.32;17.85;;;;;;;30.81;47.29;99289.14;2290872;78;20943;-81
2021/07/08 10:48:42;;;;;;;24.57;19.73;;;;;;;30.36;47.03;99294.61;2290936;78;20940;-82
2021/07/08 10:51:43;;;;;;;25.00;20.70;;;;;;;29.66;48.72;99289.41;2291252;78;21012;-81
2021/07/08 10:54:44;;;;;;;23.85;20.08;;;;;;;29.66;48.95;99288.06;2291462;78;20912;-82
2021/07/08 10:57:47;;;;;;;25.75;19.20;;;;;;;29.57;49.47;99287.25;2291212;78;20980;-82
2021/07/08 11:00:48;;;;;;;24.52;19.02;;;;;;;29.89;49.38;99286.69;2291230;78;21396;-81
2021/07/08 11:03:49;;;;;;;23.65;18.75;;;;;;;29.92;49.24;99282.46;2290394;78;20919;-81
2021/07/08 11:06:50;;;;;;;25.43;20.43;;;;;;;30.25;48.91;99280.05;2290613;78;20876;-81
2021/07/08 11:09:51;;;;;;;21.80;19.23;;;;;;;29.99;48.27;99281.61;2290077;78;20925;-82
2021/07/08 11:12:52;;;;;;;18.98;17.17;;;;;;;30.13;48.35;99274.94;2290658;78;20936;-81
2021/07/08 11:15:54;;;;;;;32.33;19.35;;;;;;;30.26;49.08;99272.36;2290448;78;21739;-82
2021/07/08 11:18:55;;;;;;;24.90;18.60;;;;;;;30.45;48.91;99268.06;2291149;78;20876;-82
2021/07/08 11:21:56;;;;;;;20.37;18.35;;;;;;;30.52;48.71;99267.59;2290717;78;21027;-81
2021/07/08 11:24:57;;;;;;;21.65;19.07;;;;;;;30.57;49.10;99265.95;2290813;78;20897;-82
2021/07/08 11:27:58;;;;;;;23.92;20.30;;;;;;;30.52;49.13;99264.02;2251909;79;21027;-81
2021/07/08 11:30:59;;;;;;;132.32;29.42;;;;;;;30.69;48.80;99267.41;2241720;79;21003;-82
2021/07/08 11:34:00;;;;;;;26.25;23.32;;;;;;;30.97;48.38;99268.33;2241996;79;20959;-82
2021/07/08 11:37:01;;;;;;;22.98;19.55;;;;;;;31.09;47.44;99258.57;2241868;79;21046;-81
2021/07/08 11:40:02;;;;;;;22.10;18.02;;;;;;;31.08;47.33;99259.05;2242248;79;21021;-83
2021/07/08 11:43:03;;;;;;;25.30;19.60;;;;;;;31.23;47.95;99259.94;2243358;79;21347;-81
2021/07/08 11:46:04;;;;;;;31.25;17.95;;;;;;;31.66;46.96;99258.78;2243658;79;20927;-81
2021/07/08 11:49:05;;;;;;;26.25;17.52;;;;;;;31.93;46.38;99249.80;2242784;79;20907;-79
2021/07/08 11:52:06;;;;;;;23.12;20.85;;;;;;;32.02;45.31;99241.05;2243581;79;20967;-80
2021/07/08 11:55:07;;;;;;;18.35;15.03;;;;;;;31.93;45.48;99241.70;2243294;79;20954;-80
2021/07/08 11:58:08;;;;;;;16.05;14.65;;;;;;;31.92;45.11;99234.08;2244052;79;21355;-79
2021/07/08 12:01:11;;;;;;;18.40;15.13;;;;;;;31.88;45.17;99228.52;2243399;79;20951;-80
2021/07/08 12:04:12;;;;;;;48.78;18.70;;;;;;;32.22;44.87;99221.64;2243122;79;21437;-79
2021/07/08 12:07:13;;;;;;;19.37;15.58;;;;;;;32.48;44.54;99218.95;2243544;79;20923;-81
2021/07/08 12:10:23;;;;;;;22.13;15.00;;;;;;;32.26;44.20;99214.22;2243035;79;21634;-78
2021/07/08 12:13:19;;;;;;;16.67;15.03;;;;;;;32.05;44.34;99223.28;2242718;79;20987;-80
2021/07/08 12:16:20;;;;;;;15.85;14.25;;;;;;;31.88;44.49;99216.86;2242718;79;20963;-80
2021/07/08 12:19:22;;;;;;;15.40;13.93;;;;;;;31.95;44.87;99201.95;2242828;79;20939;-79
2021/07/08 12:22:23;;;;;;;19.52;14.35;;;;;;;31.94;44.90;99203.80;2243716;79;21026;-79
2021/07/08 12:25:24;;;;;;;16.32;13.65;;;;;;;31.94;44.56;99204.28;2243218;79;21494;-80
2021/07/08 12:28:25;;;;;;;14.85;13.50;;;;;;;32.14;44.92;99198.37;2262074;77;21016;-79
2021/07/08 12:31:26;;;;;;;20.88;14.23;;;;;;;32.33;44.54;99201.14;2290198;78;21261;-79
2021/07/08 12:34:27;;;;;;;17.17;14.15;;;;;;;32.24;44.41;99194.56;2290460;78;20965;-80
2021/07/08 12:37:30;;;;;;;18.15;15.95;;;;;;;32.46;44.52;99189.82;2290553;78;21277;-78
2021/07/08 12:40:30;;;;;;;16.42;14.75;;;;;;;32.84;43.61;99183.84;2290923;78;21003;-79
2021/07/08 12:43:31;;;;;;;18.00;13.32;;;;;;;32.81;43.15;99185.43;2291268;78;20946;-78
2021/07/08 12:46:32;;;;;;;14.53;12.95;;;;;;;33.25;43.01;99175.84;2291030;78;20885;-78
2021/07/08 12:49:34;;;;;;;18.52;12.45;;;;;;;33.25;43.01;99175.84;2290875;77;20964;-78
2021/07/08 12:52:38;;;;;;;21.25;12.58;;;;;;;33.65;42.06;99167.39;2290307;78;21035;-78
2021/07/08 12:55:38;;;;;;;;;;;;;;;33.78;41.08;99162.75;2293144;78;20932;-78
2021/07/08 12:58:39;;;;;;;23.38;13.80;;;;;;;33.96;41.45;99172.20;2290308;78;20590;-78
2021/07/08 13:01:40;;;;;;;14.35;12.63;;;;;;;34.18;40.27;99162.72;2291558;78;20924;-79
2021/07/08 13:04:41;;;;;;;13.43;12.13;;;;;;;33.97;39.84;99157.67;2291265;78;21288;-79
2021/07/08 13:07:42;;;;;;;13.88;12.40;;;;;;;33.25;40.64;99151.02;2290911;78;20936;-79
2021/07/08 13:10:43;;;;;;;15.05;11.97;;;;;;;33.10;41.31;99155.37;2291263;78;20924;-78
2021/07/08 13:13:44;;;;;;;191.85;28.45;;;;;;;33.25;41.41;99142.89;2291119;78;20940;-79
2021/07/08 13:16:45;;;;;;;12.80;10.40;;;;;;;33.70;40.89;99141.70;2290958;78;20987;-77
2021/07/08 13:19:46;;;;;;;10.90;9.78;;;;;;;33.86;39.74;99140.06;2290666;78;21355;-78
2021/07/08 13:22:47;;;;;;;14.20;9.38;;;;;;;34.24;38.16;99145.61;2290891;78;20979;-79
2021/07/08 13:25:48;;;;;;;11.97;9.68;;;;;;;34.49;38.57;99137.23;2291760;78;20988;-80
2021/07/08 13:28:49;;;;;;;44.48;40.15;;;;;;;34.87;38.05;99138.69;2286817;78;20962;-80
2021/07/08 13:31:50;;;;;;;34.13;12.63;;;;;;;35.24;38.00;99138.66;2281843;78;21322;-80
2021/07/08 13:34:52;;;;;;;20.00;11.60;;;;;;;35.37;37.60;99135.30;2281370;78;20953;-80
2021/07/08 13:37:53;;;;;;;12.20;10.18;;;;;;;35.38;36.71;99131.59;2281598;78;20895;-80
2021/07/08 13:40:54;;;;;;;11.48;8.90;;;;;;;35.31;36.59;99129.00;2281987;78;20910;-78
2021/07/08 13:43:55;;;;;;;14.23;9.13;;;;;;;34.60;37.46;99130.44;2281759;78;21325;-79
2021/07/08 13:46:58;;;;;;;11.40;8.95;;;;;;;34.52;37.13;99132.06;2281796;78;20899;-80
2021/07/08 13:49:59;;;;;;;26.52;10.88;;;;;;;34.41;37.24;99135.65;2282103;77;20968;-79
2021/07/08 13:53:00;;;;;;;9.93;8.68;;;;;;;34.45;37.97;99135.27;2281754;78;21045;-80
2021/07/08 13:56:01;;;;;;;17.42;9.48;;;;;;;34.18;38.23;99136.98;2282041;77;20973;-81
2021/07/08 13:59:02;;;;;;;15.35;9.65;;;;;;;34.07;39.04;99136.98;2281951;77;20966;-79
2021/07/08 14:02:03;;;;;;;18.85;9.73;;;;;;;33.58;39.77;99136.38;2281979;77;21328;-79
2021/07/08 14:05:07;;;;;;;9.68;8.65;;;;;;;33.38;40.21;99134.73;2281788;77;20962;-79